sensor_id;sensor_type;location;lat;lon;timestamp;pressure;altitude;pressure_sealevel;temperature;humidity
68141;BME280;54941;52.220;104.306;2022-09-27T00:00:46;96067.13;;;4.71;86.16
68141;BME280;54941;52.220;104.306;2022-09-27T00:03:12;96082.16;;;4.80;86.78
68141;BME280;54941;52.220;104.306;2022-09-27T00:05:39;96076.63;;;4.91;86.69
68141;BME280;54941;52.220;104.306;2022-09-27T00:08:05;96077.34;;;4.85;85.96
68141;BME280;54941;52.220;104.306;2022-09-27T00:10:31;96079.53;;;4.74;86.53
68141;BME280;54941;52.220;104.306;2022-09-27T00:12:58;96075.66;;;4.63;87.63
68141;BME280;54941;52.220;104.306;2022-09-27T00:15:25;96071.19;;;4.65;87.42
68141;BME280;54941;52.220;104.306;2022-09-27T00:17:52;96069.59;;;4.64;87.46
68141;BME280;54941;52.220;104.306;2022-09-27T00:20:20;96083.84;;;4.73;87.31
68141;BME280;54941;52.220;104.306;2022-09-27T00:22:47;96084.91;;;4.79;87.44
68141;BME280;54941;52.220;104.306;2022-09-27T00:25:14;96086.41;;;4.73;87.27
68141;BME280;54941;52.220;104.306;2022-09-27T00:27:41;96082.88;;;4.74;86.83
68141;BME280;54941;52.220;104.306;2022-09-27T00:30:08;96076.81;;;4.61;86.60
68141;BME280;54941;52.220;104.306;2022-09-27T00:32:35;96080.59;;;4.65;87.22
68141;BME280;54941;52.220;104.306;2022-09-27T00:35:03;96078.84;;;4.65;86.29
68141;BME280;54941;52.220;104.306;2022-09-27T00:37:30;96090.25;;;4.55;87.32
68141;BME280;54941;52.220;104.306;2022-09-27T00:39:56;96084.63;;;4.59;87.00
68141;BME280;54941;52.220;104.306;2022-09-27T00:42:23;96079.59;;;4.66;86.41
68141;BME280;54941;52.220;104.306;2022-09-27T00:45:00;96087.19;;;4.74;86.68
68141;BME280;54941;52.220;104.306;2022-09-27T00:47:30;96082.16;;;4.66;86.41
68141;BME280;54941;52.220;104.306;2022-09-27T00:50:04;96082.34;;;4.50;85.24
68141;BME280;54941;52.220;104.306;2022-09-27T00:52:40;96079.47;;;4.30;86.36
68141;BME280;54941;52.220;104.306;2022-09-27T00:55:12;96066.75;;;4.45;86.92
68141;BME280;54941;52.220;104.306;2022-09-27T00:57:41;96071.78;;;4.53;86.24
68141;BME280;54941;52.220;104.306;2022-09-27T01:00:11;96067.03;;;4.50;86.29
68141;BME280;54941;52.220;104.306;2022-09-27T01:02:41;96074.91;;;4.40;86.71
68141;BME280;54941;52.220;104.306;2022-09-27T01:05:12;96077.41;;;4.48;86.04
68141;BME280;54941;52.220;104.306;2022-09-27T01:07:39;96077.69;;;4.53;85.80
68141;BME280;54941;52.220;104.306;2022-09-27T01:10:06;96070.09;;;4.60;85.86
68141;BME280;54941;52.220;104.306;2022-09-27T01:12:41;96068.06;;;4.40;86.17
68141;BME280;54941;52.220;104.306;2022-09-27T01:15:16;96070.03;;;4.53;86.48
68141;BME280;54941;52.220;104.306;2022-09-27T01:17:55;96070.03;;;4.68;86.56
68141;BME280;54941;52.220;104.306;2022-09-27T01:26:55;96076.28;;;4.51;85.59
68141;BME280;54941;52.220;104.306;2022-09-27T01:29:30;96081.13;;;4.60;86.15
68141;BME280;54941;52.220;104.306;2022-09-27T01:32:04;96077.50;;;4.69;85.92
68141;BME280;54941;52.220;104.306;2022-09-27T01:34:38;96082.28;;;4.87;85.49
68141;BME280;54941;52.220;104.306;2022-09-27T01:37:11;96077.16;;;5.02;85.60
68141;BME280;54941;52.220;104.306;2022-09-27T01:39:47;96076.53;;;4.85;84.60
68141;BME280;54941;52.220;104.306;2022-09-27T01:42:20;96073.47;;;4.89;85.01
68141;BME280;54941;52.220;104.306;2022-09-27T01:44:50;96069.06;;;4.83;84.81
68141;BME280;54941;52.220;104.306;2022-09-27T01:47:23;96063.06;;;5.20;84.32
68141;BME280;54941;52.220;104.306;2022-09-27T01:49:55;96060.84;;;5.03;82.99
68141;BME280;54941;52.220;104.306;2022-09-27T01:52:28;96061.06;;;5.01;83.35
68141;BME280;54941;52.220;104.306;2022-09-27T01:54:59;96064.63;;;5.07;82.27
68141;BME280;54941;52.220;104.306;2022-09-27T01:57:31;96062.53;;;4.81;81.90
68141;BME280;54941;52.220;104.306;2022-09-27T02:00:01;96053.41;;;4.86;81.95
68141;BME280;54941;52.220;104.306;2022-09-27T02:02:33;96061.84;;;4.87;81.13
68141;BME280;54941;52.220;104.306;2022-09-27T02:05:04;96066.53;;;4.83;80.97
68141;BME280;54941;52.220;104.306;2022-09-27T02:07:37;96065.72;;;4.98;81.43
68141;BME280;54941;52.220;104.306;2022-09-27T02:10:09;96070.19;;;5.10;81.46
68141;BME280;54941;52.220;104.306;2022-09-27T02:12:41;96062.63;;;5.17;82.79
68141;BME280;54941;52.220;104.306;2022-09-27T02:15:13;96066.88;;;5.10;81.88
68141;BME280;54941;52.220;104.306;2022-09-27T02:17:44;96060.16;;;5.09;82.78
68141;BME280;54941;52.220;104.306;2022-09-27T02:20:21;96056.94;;;5.21;83.10
68141;BME280;54941;52.220;104.306;2022-09-27T02:22:55;96069.03;;;5.27;82.61
68141;BME280;54941;52.220;104.306;2022-09-27T02:25:24;96062.31;;;5.41;82.78
68141;BME280;54941;52.220;104.306;2022-09-27T02:27:58;96057.63;;;5.45;79.98
68141;BME280;54941;52.220;104.306;2022-09-27T02:30:28;96054.19;;;5.37;79.79
68141;BME280;54941;52.220;104.306;2022-09-27T02:32:56;96050.69;;;5.38;79.64
68141;BME280;54941;52.220;104.306;2022-09-27T02:35:26;96051.94;;;5.28;79.33
68141;BME280;54941;52.220;104.306;2022-09-27T02:37:54;96051.22;;;5.34;80.29
68141;BME280;54941;52.220;104.306;2022-09-27T02:40:20;96048.97;;;5.24;79.16
68141;BME280;54941;52.220;104.306;2022-09-27T02:42:47;96048.50;;;5.35;80.95
68141;BME280;54941;52.220;104.306;2022-09-27T02:45:15;96036.00;;;5.47;79.45
68141;BME280;54941;52.220;104.306;2022-09-27T02:47:58;96038.13;;;5.44;80.35
68141;BME280;54941;52.220;104.306;2022-09-27T02:50:39;96042.16;;;5.31;79.90
68141;BME280;54941;52.220;104.306;2022-09-27T02:53:15;96038.59;;;5.32;78.64
68141;BME280;54941;52.220;104.306;2022-09-27T02:55:50;96035.84;;;5.49;78.39
68141;BME280;54941;52.220;104.306;2022-09-27T02:58:23;96038.81;;;5.52;78.01
68141;BME280;54941;52.220;104.306;2022-09-27T03:00:56;96032.72;;;5.32;77.59
68141;BME280;54941;52.220;104.306;2022-09-27T03:03:35;96033.25;;;5.27;77.45
68141;BME280;54941;52.220;104.306;2022-09-27T03:06:06;96028.22;;;5.34;76.62
68141;BME280;54941;52.220;104.306;2022-09-27T03:08:34;96031.50;;;5.28;77.81
68141;BME280;54941;52.220;104.306;2022-09-27T03:11:01;96034.47;;;5.67;76.17
68141;BME280;54941;52.220;104.306;2022-09-27T03:13:27;96047.56;;;5.58;77.02
68141;BME280;54941;52.220;104.306;2022-09-27T03:15:54;96045.91;;;5.71;77.19
68141;BME280;54941;52.220;104.306;2022-09-27T03:18:20;96039.00;;;5.86;76.22
68141;BME280;54941;52.220;104.306;2022-09-27T03:20:48;96042.34;;;5.87;76.06
68141;BME280;54941;52.220;104.306;2022-09-27T03:23:15;96030.53;;;5.86;77.23
68141;BME280;54941;52.220;104.306;2022-09-27T03:25:41;96026.47;;;5.56;76.21
68141;BME280;54941;52.220;104.306;2022-09-27T03:28:08;96041.06;;;5.62;76.21
68141;BME280;54941;52.220;104.306;2022-09-27T03:30:34;96040.38;;;5.68;75.67
68141;BME280;54941;52.220;104.306;2022-09-27T03:33:01;96035.63;;;5.65;75.46
68141;BME280;54941;52.220;104.306;2022-09-27T03:35:27;96034.56;;;5.59;75.30
68141;BME280;54941;52.220;104.306;2022-09-27T03:37:55;96041.38;;;5.73;75.29
68141;BME280;54941;52.220;104.306;2022-09-27T03:40:22;96052.03;;;5.77;75.52
68141;BME280;54941;52.220;104.306;2022-09-27T03:42:48;96042.41;;;5.94;75.98
68141;BME280;54941;52.220;104.306;2022-09-27T03:45:15;96043.47;;;5.84;76.41
68141;BME280;54941;52.220;104.306;2022-09-27T03:47:41;96046.28;;;5.68;75.68
68141;BME280;54941;52.220;104.306;2022-09-27T03:50:09;96057.09;;;5.70;76.52
68141;BME280;54941;52.220;104.306;2022-09-27T03:52:37;96050.66;;;5.74;75.73
68141;BME280;54941;52.220;104.306;2022-09-27T03:55:06;96041.75;;;5.70;75.94
68141;BME280;54941;52.220;104.306;2022-09-27T03:57:32;96051.06;;;5.78;74.82
68141;BME280;54941;52.220;104.306;2022-09-27T03:59:58;96045.41;;;5.82;73.70
68141;BME280;54941;52.220;104.306;2022-09-27T04:02:25;96060.06;;;5.88;74.37
68141;BME280;54941;52.220;104.306;2022-09-27T04:04:52;96051.84;;;5.93;72.51
68141;BME280;54941;52.220;104.306;2022-09-27T04:07:18;96030.63;;;5.78;74.12
68141;BME280;54941;52.220;104.306;2022-09-27T04:09:44;96023.75;;;5.78;73.63
68141;BME280;54941;52.220;104.306;2022-09-27T04:12:12;96029.50;;;5.66;75.72
68141;BME280;54941;52.220;104.306;2022-09-27T04:14:39;96030.38;;;5.52;75.84
68141;BME280;54941;52.220;104.306;2022-09-27T04:17:05;96031.94;;;5.53;76.40
68141;BME280;54941;52.220;104.306;2022-09-27T04:19:32;96029.19;;;5.69;76.84
68141;BME280;54941;52.220;104.306;2022-09-27T04:21:58;96020.69;;;5.47;75.02
68141;BME280;54941;52.220;104.306;2022-09-27T04:24:25;96027.28;;;5.56;74.83
68141;BME280;54941;52.220;104.306;2022-09-27T04:26:51;96033.78;;;5.59;74.90
68141;BME280;54941;52.220;104.306;2022-09-27T04:29:19;96030.13;;;5.47;75.62
68141;BME280;54941;52.220;104.306;2022-09-27T04:31:45;96032.38;;;5.56;75.26
68141;BME280;54941;52.220;104.306;2022-09-27T04:34:12;96023.50;;;5.52;75.84
68141;BME280;54941;52.220;104.306;2022-09-27T04:36:38;96028.97;;;5.49;75.61
68141;BME280;54941;52.220;104.306;2022-09-27T04:39:06;96028.13;;;5.42;76.49
68141;BME280;54941;52.220;104.306;2022-09-27T04:41:33;96016.72;;;5.45;74.66
68141;BME280;54941;52.220;104.306;2022-09-27T04:44:00;96029.56;;;5.51;76.07
68141;BME280;54941;52.220;104.306;2022-09-27T04:46:28;96023.63;;;5.65;75.77
68141;BME280;54941;52.220;104.306;2022-09-27T04:48:55;96007.84;;;5.62;77.05
68141;BME280;54941;52.220;104.306;2022-09-27T04:51:22;96009.78;;;5.81;77.13
68141;BME280;54941;52.220;104.306;2022-09-27T04:53:48;96030.88;;;5.83;75.56
68141;BME280;54941;52.220;104.306;2022-09-27T04:56:15;96038.47;;;5.91;75.99
68141;BME280;54941;52.220;104.306;2022-09-27T04:58:41;96028.06;;;5.78;76.39
68141;BME280;54941;52.220;104.306;2022-09-27T05:01:08;96018.53;;;5.65;75.87
68141;BME280;54941;52.220;104.306;2022-09-27T05:03:36;96022.53;;;5.53;75.83
68141;BME280;54941;52.220;104.306;2022-09-27T05:06:03;96032.22;;;5.58;76.32
68141;BME280;54941;52.220;104.306;2022-09-27T05:08:30;96030.56;;;5.50;77.74
68141;BME280;54941;52.220;104.306;2022-09-27T05:10:56;96019.03;;;5.39;76.93
68141;BME280;54941;52.220;104.306;2022-09-27T05:13:23;96014.72;;;5.40;78.91
68141;BME280;54941;52.220;104.306;2022-09-27T05:15:49;96013.22;;;5.46;76.88
68141;BME280;54941;52.220;104.306;2022-09-27T05:18:16;96013.94;;;5.61;76.47
68141;BME280;54941;52.220;104.306;2022-09-27T05:20:44;96009.91;;;5.52;75.89
68141;BME280;54941;52.220;104.306;2022-09-27T05:23:10;96019.06;;;5.61;75.80
68141;BME280;54941;52.220;104.306;2022-09-27T05:25:37;96011.34;;;5.54;74.59
68141;BME280;54941;52.220;104.306;2022-09-27T05:28:04;96010.47;;;5.68;74.61
68141;BME280;54941;52.220;104.306;2022-09-27T05:30:30;96016.09;;;5.57;75.03
68141;BME280;54941;52.220;104.306;2022-09-27T05:32:56;96000.84;;;5.49;75.02
68141;BME280;54941;52.220;104.306;2022-09-27T05:35:23;95981.56;;;5.47;75.75
68141;BME280;54941;52.220;104.306;2022-09-27T05:37:55;95993.19;;;5.49;75.49
68141;BME280;54941;52.220;104.306;2022-09-27T05:40:23;95993.13;;;5.43;75.39
68141;BME280;54941;52.220;104.306;2022-09-27T05:42:50;95996.72;;;5.48;74.80
68141;BME280;54941;52.220;104.306;2022-09-27T05:45:17;95990.53;;;5.57;77.69
68141;BME280;54941;52.220;104.306;2022-09-27T05:47:54;95957.66;;;5.54;76.25
68141;BME280;54941;52.220;104.306;2022-09-27T05:50:24;95967.81;;;5.48;75.90
68141;BME280;54941;52.220;104.306;2022-09-27T05:52:52;95973.41;;;5.36;76.41
68141;BME280;54941;52.220;104.306;2022-09-27T05:55:20;95979.88;;;5.54;76.39
68141;BME280;54941;52.220;104.306;2022-09-27T05:57:57;95983.13;;;5.48;76.81
68141;BME280;54941;52.220;104.306;2022-09-27T06:00:24;95970.13;;;5.43;75.77
68141;BME280;54941;52.220;104.306;2022-09-27T06:02:55;95969.66;;;5.54;74.75
68141;BME280;54941;52.220;104.306;2022-09-27T06:05:22;95963.97;;;5.37;75.25
68141;BME280;54941;52.220;104.306;2022-09-27T06:07:49;95966.78;;;5.42;76.73
68141;BME280;54941;52.220;104.306;2022-09-27T06:10:16;95985.91;;;5.46;75.94
68141;BME280;54941;52.220;104.306;2022-09-27T06:12:44;95996.00;;;5.54;76.87
68141;BME280;54941;52.220;104.306;2022-09-27T06:15:10;95976.56;;;5.60;77.82
68141;BME280;54941;52.220;104.306;2022-09-27T06:17:37;95979.00;;;5.68;78.69
68141;BME280;54941;52.220;104.306;2022-09-27T06:20:04;95981.38;;;5.48;76.87
68141;BME280;54941;52.220;104.306;2022-09-27T06:22:31;95986.50;;;5.48;78.58
68141;BME280;54941;52.220;104.306;2022-09-27T06:24:57;95989.78;;;5.63;79.75
68141;BME280;54941;52.220;104.306;2022-09-27T06:27:24;95981.13;;;5.64;80.30
68141;BME280;54941;52.220;104.306;2022-09-27T06:29:52;95968.00;;;5.67;79.95
68141;BME280;54941;52.220;104.306;2022-09-27T06:32:18;95970.63;;;5.53;80.10
68141;BME280;54941;52.220;104.306;2022-09-27T06:34:45;95973.59;;;5.56;80.00
68141;BME280;54941;52.220;104.306;2022-09-27T06:37:11;95969.50;;;5.62;79.72
68141;BME280;54941;52.220;104.306;2022-09-27T06:39:38;95983.13;;;5.48;79.75
68141;BME280;54941;52.220;104.306;2022-09-27T06:42:04;95983.28;;;5.61;81.82
68141;BME280;54941;52.220;104.306;2022-09-27T06:44:30;95971.47;;;5.60;81.38
68141;BME280;54941;52.220;104.306;2022-09-27T06:46:58;95980.59;;;5.48;79.43
68141;BME280;54941;52.220;104.306;2022-09-27T06:49:25;95980.94;;;5.45;79.76
68141;BME280;54941;52.220;104.306;2022-09-27T06:51:52;95981.91;;;5.22;78.99
68141;BME280;54941;52.220;104.306;2022-09-27T06:54:19;95988.66;;;5.30;81.03
68141;BME280;54941;52.220;104.306;2022-09-27T06:56:46;95998.00;;;5.37;80.34
68141;BME280;54941;52.220;104.306;2022-09-27T06:59:12;95994.91;;;5.42;80.94
68141;BME280;54941;52.220;104.306;2022-09-27T07:01:39;95988.25;;;5.26;80.94
68141;BME280;54941;52.220;104.306;2022-09-27T07:04:07;95987.75;;;5.37;79.78
68141;BME280;54941;52.220;104.306;2022-09-27T07:06:36;95982.34;;;5.68;80.54
68141;BME280;54941;52.220;104.306;2022-09-27T07:09:03;95967.00;;;5.47;78.79
68141;BME280;54941;52.220;104.306;2022-09-27T07:11:29;95978.97;;;5.25;78.93
68141;BME280;54941;52.220;104.306;2022-09-27T07:13:56;95976.31;;;5.12;78.52
68141;BME280;54941;52.220;104.306;2022-09-27T07:16:22;95956.25;;;5.09;78.70
68141;BME280;54941;52.220;104.306;2022-09-27T07:18:49;95977.34;;;5.18;78.86
68141;BME280;54941;52.220;104.306;2022-09-27T07:21:17;95998.50;;;5.12;79.90
68141;BME280;54941;52.220;104.306;2022-09-27T07:23:44;95964.81;;;5.02;80.83
68141;BME280;54941;52.220;104.306;2022-09-27T07:26:10;95972.25;;;5.03;82.65
68141;BME280;54941;52.220;104.306;2022-09-27T07:28:37;95980.31;;;4.85;81.66
68141;BME280;54941;52.220;104.306;2022-09-27T07:31:04;95961.25;;;5.03;81.80
68141;BME280;54941;52.220;104.306;2022-09-27T07:33:31;95965.13;;;5.13;81.04
68141;BME280;54941;52.220;104.306;2022-09-27T07:35:57;95970.56;;;5.10;82.14
68141;BME280;54941;52.220;104.306;2022-09-27T07:38:25;95973.06;;;5.04;81.31
68141;BME280;54941;52.220;104.306;2022-09-27T07:40:52;95966.19;;;5.04;81.87
68141;BME280;54941;52.220;104.306;2022-09-27T07:43:18;95941.44;;;5.05;81.40
68141;BME280;54941;52.220;104.306;2022-09-27T07:45:45;95940.75;;;4.96;81.57
68141;BME280;54941;52.220;104.306;2022-09-27T07:48:13;95946.66;;;4.97;80.86
68141;BME280;54941;52.220;104.306;2022-09-27T07:50:40;95956.78;;;5.05;82.05
68141;BME280;54941;52.220;104.306;2022-09-27T07:53:06;95943.50;;;4.95;81.56
68141;BME280;54941;52.220;104.306;2022-09-27T07:55:34;95947.72;;;5.02;81.82
68141;BME280;54941;52.220;104.306;2022-09-27T07:58:04;95955.06;;;5.12;82.70
68141;BME280;54941;52.220;104.306;2022-09-27T08:00:31;95956.03;;;5.11;82.58
68141;BME280;54941;52.220;104.306;2022-09-27T08:02:57;95949.28;;;5.03;81.88
68141;BME280;54941;52.220;104.306;2022-09-27T08:05:24;95960.88;;;5.20;80.86
68141;BME280;54941;52.220;104.306;2022-09-27T08:07:54;95945.41;;;5.28;81.29
68141;BME280;54941;52.220;104.306;2022-09-27T08:10:20;95959.59;;;5.31;80.60
68141;BME280;54941;52.220;104.306;2022-09-27T08:12:48;95973.34;;;5.30;78.91
68141;BME280;54941;52.220;104.306;2022-09-27T08:15:15;95983.63;;;5.36;79.69
68141;BME280;54941;52.220;104.306;2022-09-27T08:17:41;95986.41;;;5.20;79.13
68141;BME280;54941;52.220;104.306;2022-09-27T08:20:08;95979.69;;;5.34;80.16
68141;BME280;54941;52.220;104.306;2022-09-27T08:22:39;95989.72;;;5.35;80.19
68141;BME280;54941;52.220;104.306;2022-09-27T08:25:06;95973.03;;;5.39;80.86
68141;BME280;54941;52.220;104.306;2022-09-27T08:27:33;95970.44;;;5.54;81.52
68141;BME280;54941;52.220;104.306;2022-09-27T08:30:01;95962.38;;;5.36;78.76
68141;BME280;54941;52.220;104.306;2022-09-27T08:32:30;95970.25;;;5.34;81.93
68141;BME280;54941;52.220;104.306;2022-09-27T08:34:59;95974.88;;;5.24;81.21
68141;BME280;54941;52.220;104.306;2022-09-27T08:37:26;95973.06;;;5.04;80.37
68141;BME280;54941;52.220;104.306;2022-09-27T08:39:52;95976.41;;;5.04;82.34
68141;BME280;54941;52.220;104.306;2022-09-27T08:42:26;95962.69;;;5.05;83.31
68141;BME280;54941;52.220;104.306;2022-09-27T08:44:57;95964.81;;;5.02;84.27
68141;BME280;54941;52.220;104.306;2022-09-27T08:47:32;95969.19;;;5.08;83.44
68141;BME280;54941;52.220;104.306;2022-09-27T08:50:13;95975.22;;;5.21;84.69
68141;BME280;54941;52.220;104.306;2022-09-27T08:52:49;95975.34;;;5.13;85.13
68141;BME280;54941;52.220;104.306;2022-09-27T08:55:20;95989.25;;;5.11;82.32
68141;BME280;54941;52.220;104.306;2022-09-27T08:57:51;95977.81;;;5.07;83.45
68141;BME280;54941;52.220;104.306;2022-09-27T09:00:20;95973.06;;;5.04;85.00
68141;BME280;54941;52.220;104.306;2022-09-27T09:02:48;95968.91;;;5.03;84.64
68141;BME280;54941;52.220;104.306;2022-09-27T09:05:18;95962.78;;;4.97;84.89
68141;BME280;54941;52.220;104.306;2022-09-27T09:08:02;95957.31;;;5.00;84.08
68141;BME280;54941;52.220;104.306;2022-09-27T09:10:42;95945.69;;;4.98;82.50
68141;BME280;54941;52.220;104.306;2022-09-27T09:13:24;95937.06;;;4.99;81.79
68141;BME280;54941;52.220;104.306;2022-09-27T09:16:03;95932.06;;;4.90;80.52
68141;BME280;54941;52.220;104.306;2022-09-27T09:18:51;95927.34;;;4.87;81.06
68141;BME280;54941;52.220;104.306;2022-09-27T09:21:26;95933.13;;;4.81;80.91
68141;BME280;54941;52.220;104.306;2022-09-27T09:24:18;95936.31;;;4.83;81.55
68141;BME280;54941;52.220;104.306;2022-09-27T09:26:54;95944.22;;;4.88;81.59
68141;BME280;54941;52.220;104.306;2022-09-27T09:29:35;95936.38;;;4.90;82.02
68141;BME280;54941;52.220;104.306;2022-09-27T09:32:14;95937.34;;;4.89;81.24
68141;BME280;54941;52.220;104.306;2022-09-27T09:34:50;95946.84;;;4.95;81.59
68141;BME280;54941;52.220;104.306;2022-09-27T09:37:20;95950.19;;;4.96;80.87
68141;BME280;54941;52.220;104.306;2022-09-27T09:39:51;95948.00;;;4.93;79.76
68141;BME280;54941;52.220;104.306;2022-09-27T09:42:23;95955.91;;;4.98;80.53
68141;BME280;54941;52.220;104.306;2022-09-27T09:44:55;95958.31;;;4.84;81.53
68141;BME280;54941;52.220;104.306;2022-09-27T09:47:30;95958.41;;;4.91;82.30
68141;BME280;54941;52.220;104.306;2022-09-27T09:50:04;95958.41;;;4.91;83.12
68141;BME280;54941;52.220;104.306;2022-09-27T09:52:38;95964.63;;;4.88;79.90
68141;BME280;54941;52.220;104.306;2022-09-27T09:55:11;95963.09;;;4.73;79.86
68141;BME280;54941;52.220;104.306;2022-09-27T09:57:51;95970.56;;;4.74;80.57
68141;BME280;54941;52.220;104.306;2022-09-27T10:00:20;95971.63;;;4.80;79.87
68141;BME280;54941;52.220;104.306;2022-09-27T10:02:47;95958.91;;;4.51;79.85
68141;BME280;54941;52.220;104.306;2022-09-27T10:05:17;95959.41;;;4.46;81.36
68141;BME280;54941;52.220;104.306;2022-09-27T10:07:45;95958.00;;;4.43;82.88
68141;BME280;54941;52.220;104.306;2022-09-27T10:10:14;95959.78;;;4.28;84.06
68141;BME280;54941;52.220;104.306;2022-09-27T10:12:41;95945.88;;;4.31;84.20
68141;BME280;54941;52.220;104.306;2022-09-27T10:15:13;95947.03;;;4.28;85.37
68141;BME280;54941;52.220;104.306;2022-09-27T10:17:45;95944.38;;;4.36;86.12
68141;BME280;54941;52.220;104.306;2022-09-27T10:20:23;95945.00;;;4.09;86.77
68141;BME280;54941;52.220;104.306;2022-09-27T10:22:52;95954.81;;;3.98;87.88
68141;BME280;54941;52.220;104.306;2022-09-27T10:25:20;95959.28;;;3.96;88.70
68141;BME280;54941;52.220;104.306;2022-09-27T10:27:48;95954.09;;;3.89;88.92
68141;BME280;54941;52.220;104.306;2022-09-27T10:30:22;95957.28;;;3.91;89.04
68141;BME280;54941;52.220;104.306;2022-09-27T10:32:51;95947.75;;;3.85;88.43
68141;BME280;54941;52.220;104.306;2022-09-27T10:35:28;95946.25;;;3.76;88.56
68141;BME280;54941;52.220;104.306;2022-09-27T10:38:16;95944.13;;;3.65;89.16
68141;BME280;54941;52.220;104.306;2022-09-27T10:40:45;95947.69;;;3.56;89.24
68141;BME280;54941;52.220;104.306;2022-09-27T10:43:26;95944.13;;;3.65;90.47
68141;BME280;54941;52.220;104.306;2022-09-27T10:46:06;95931.03;;;3.68;90.08
68141;BME280;54941;52.220;104.306;2022-09-27T10:48:36;95925.81;;;3.84;90.66
68141;BME280;54941;52.220;104.306;2022-09-27T10:51:07;95919.47;;;3.80;89.91
68141;BME280;54941;52.220;104.306;2022-09-27T10:53:46;95922.59;;;3.67;89.96
68141;BME280;54941;52.220;104.306;2022-09-27T10:56:21;95928.59;;;3.74;90.69
68141;BME280;54941;52.220;104.306;2022-09-27T10:58:47;95923.94;;;3.78;91.58
68141;BME280;54941;52.220;104.306;2022-09-27T11:01:14;95932.91;;;3.88;92.22
68141;BME280;54941;52.220;104.306;2022-09-27T11:03:47;95926.03;;;3.74;90.74
68141;BME280;54941;52.220;104.306;2022-09-27T11:06:29;95921.34;;;3.63;90.95
68141;BME280;54941;52.220;104.306;2022-09-27T11:09:10;95915.75;;;3.68;91.50
68141;BME280;54941;52.220;104.306;2022-09-27T11:11:41;95907.41;;;3.74;91.05
68141;BME280;54941;52.220;104.306;2022-09-27T11:14:17;95908.56;;;3.71;90.29
68141;BME280;54941;52.220;104.306;2022-09-27T11:16:55;95917.44;;;3.75;89.38
68141;BME280;54941;52.220;104.306;2022-09-27T11:19:35;95930.25;;;3.67;90.45
68141;BME280;54941;52.220;104.306;2022-09-27T11:22:16;95944.56;;;3.68;92.17
68141;BME280;54941;52.220;104.306;2022-09-27T11:24:56;95945.31;;;3.77;93.46
68141;BME280;54941;52.220;104.306;2022-09-27T11:27:36;95942.97;;;3.67;92.61
68141;BME280;54941;52.220;104.306;2022-09-27T11:30:11;95932.25;;;3.57;92.95
68141;BME280;54941;52.220;104.306;2022-09-27T11:32:59;95925.41;;;3.58;92.09
68141;BME280;54941;52.220;104.306;2022-09-27T11:35:46;95919.00;;;3.62;92.46
68141;BME280;54941;52.220;104.306;2022-09-27T11:38:24;95906.34;;;3.68;92.32
68141;BME280;54941;52.220;104.306;2022-09-27T11:41:09;95903.00;;;3.68;91.96
68141;BME280;54941;52.220;104.306;2022-09-27T11:44:00;95897.47;;;3.64;90.73
68141;BME280;54941;52.220;104.306;2022-09-27T11:46:32;95899.06;;;3.65;90.80
68141;BME280;54941;52.220;104.306;2022-09-27T11:49:15;95905.03;;;3.72;90.80
68141;BME280;54941;52.220;104.306;2022-09-27T11:52:00;95903.00;;;3.68;90.57
68141;BME280;54941;52.220;104.306;2022-09-27T11:54:48;95905.41;;;3.69;90.80
68141;BME280;54941;52.220;104.306;2022-09-27T11:57:22;95905.56;;;3.68;90.78
68141;BME280;54941;52.220;104.306;2022-09-27T12:00:11;95903.63;;;3.70;90.69
68141;BME280;54941;52.220;104.306;2022-09-27T12:03:06;95890.81;;;3.78;91.27
68141;BME280;54941;52.220;104.306;2022-09-27T12:05:45;95876.81;;;3.74;90.86
68141;BME280;54941;52.220;104.306;2022-09-27T12:08:33;95860.94;;;3.72;91.42
68141;BME280;54941;52.220;104.306;2022-09-27T12:11:11;95860.03;;;3.65;90.89
68141;BME280;54941;52.220;104.306;2022-09-27T12:13:43;95871.72;;;3.59;91.18
68141;BME280;54941;52.220;104.306;2022-09-27T12:16:15;95869.06;;;3.53;90.69
68141;BME280;54941;52.220;104.306;2022-09-27T12:18:44;95866.69;;;3.51;90.38
68141;BME280;54941;52.220;104.306;2022-09-27T12:21:12;95860.19;;;3.49;91.19
68141;BME280;54941;52.220;104.306;2022-09-27T12:23:42;95853.28;;;3.57;91.17
68141;BME280;54941;52.220;104.306;2022-09-27T12:26:13;95843.44;;;3.54;91.15
68141;BME280;54941;52.220;104.306;2022-09-27T12:28:47;95844.56;;;3.52;91.10
68141;BME280;54941;52.220;104.306;2022-09-27T12:31:19;95847.00;;;3.45;91.88
68141;BME280;54941;52.220;104.306;2022-09-27T12:33:53;95867.22;;;3.47;92.58
68141;BME280;54941;52.220;104.306;2022-09-27T12:36:26;95870.38;;;3.49;92.20
68141;BME280;54941;52.220;104.306;2022-09-27T12:39:01;95846.78;;;3.55;92.46
68141;BME280;54941;52.220;104.306;2022-09-27T12:41:36;95832.34;;;3.47;92.33
68141;BME280;54941;52.220;104.306;2022-09-27T12:44:03;95828.47;;;3.51;93.01
68141;BME280;54941;52.220;104.306;2022-09-27T12:46:37;95820.06;;;3.51;93.30
68141;BME280;54941;52.220;104.306;2022-09-27T12:49:12;95809.53;;;3.54;93.39
68141;BME280;54941;52.220;104.306;2022-09-27T12:51:44;95811.88;;;3.55;93.38
68141;BME280;54941;52.220;104.306;2022-09-27T12:54:30;95803.63;;;3.68;93.06
68141;BME280;54941;52.220;104.306;2022-09-27T12:57:06;95807.50;;;3.64;93.50
68141;BME280;54941;52.220;104.306;2022-09-27T12:59:45;95804.59;;;3.67;94.05
68141;BME280;54941;52.220;104.306;2022-09-27T13:02:43;95797.94;;;3.66;93.76
68141;BME280;54941;52.220;104.306;2022-09-27T13:05:26;95791.84;;;3.67;94.27
68141;BME280;54941;52.220;104.306;2022-09-27T13:08:11;95789.75;;;3.70;94.16
68141;BME280;54941;52.220;104.306;2022-09-27T13:10:53;95786.31;;;3.63;94.16
68141;BME280;54941;52.220;104.306;2022-09-27T13:13:24;95795.81;;;3.55;94.20
68141;BME280;54941;52.220;104.306;2022-09-27T13:15:56;95800.44;;;3.51;94.42